Time;durP1;ratioP1;P1;durP2;ratioP2;P2;SDS_P1;SDS_P2;PMS_P1;PMS_P2;Temp;Humidity;BMP_temperature;BMP_pressure;BME280_temperature;BME280_humidity;BME280_pressure;Samples;Min_cycle;Max_cycle;Signal;HPM_P1;HPM_P2
2021/09/04 00:00:59;;;;;;;10.15;6.03;;;;;;;;;;5021391;28;20212;-73
2021/09/04 00:03:44;;;;;;;10.00;5.95;;;;;;;;;;5032302;28;20040;-73
2021/09/04 00:06:29;;;;;;;8.57;5.82;;;;;;;;;;5054316;28;20110;-73
2021/09/04 00:09:13;;;;;;;9.57;5.90;;;;;;;;;;5044488;28;20069;-72
2021/09/04 00:11:58;;;;;;;9.90;6.40;;;;;;;;;;5058410;28;20556;-72
2021/09/04 00:14:42;;;;;;;11.27;6.45;;;;;;;;;;5046631;28;20110;-73
2021/09/04 00:17:27;;;;;;;8.32;5.82;;;;;;;;;;5031953;28;20060;-72
2021/09/04 00:20:11;;;;;;;9.82;7.00;;;;;;;;;;5034964;28;20554;-72
2021/09/04 00:22:56;;;;;;;10.13;5.85;;;;;;;;;;5049205;28;20048;-72
2021/09/04 00:25:41;;;;;;;11.82;7.00;;;;;;;;;;5028896;28;20142;-73
2021/09/04 00:28:26;;;;;;;10.90;6.45;;;;;;;;;;5039122;28;20529;-72
2021/09/04 00:31:10;;;;;;;12.18;6.57;;;;;;;;;;5042750;28;20120;-72
2021/09/04 00:33:55;;;;;;;9.90;6.22;;;;;;;;;;5045758;28;20098;-73
2021/09/04 00:36:39;;;;;;;10.30;6.28;;;;;;;;;;5044541;28;22053;-72
2021/09/04 00:39:24;;;;;;;11.93;7.30;;;;;;;;;;5045319;28;20043;-72
2021/09/04 00:42:08;;;;;;;10.95;6.45;;;;;;;;;;5035022;28;20518;-72
2021/09/04 00:44:53;;;;;;;10.90;6.55;;;;;;;;;;5053635;28;20115;-72
2021/09/04 00:47:47;;;;;;;9.43;6.15;;;;;;;;;;5050770;28;20062;-72
2021/09/04 00:50:33;;;;;;;10.18;5.90;;;;;;;;;;5047681;28;20094;-73
2021/09/04 00:53:17;;;;;;;10.63;6.50;;;;;;;;;;5054788;28;20703;-72
2021/09/04 00:56:02;;;;;;;9.40;6.15;;;;;;;;;;5028532;28;20458;-72
2021/09/04 00:58:46;;;;;;;12.82;6.65;;;;;;;;;;5031788;28;20068;-72
2021/09/04 01:01:31;;;;;;;9.35;5.75;;;;;;;;;;5048475;28;20086;-72
2021/09/04 01:04:15;;;;;;;11.10;6.78;;;;;;;;;;5048307;28;20418;-72
2021/09/04 01:07:00;;;;;;;10.13;6.22;;;;;;;;;;5061047;28;20174;-74
2021/09/04 01:09:44;;;;;;;10.23;6.60;;;;;;;;;;5055562;28;20040;-72
2021/09/04 01:12:31;;;;;;;10.82;6.03;;;;;;;;;;5031365;28;20056;-72
2021/09/04 01:15:15;;;;;;;11.57;6.22;;;;;;;;;;5045287;28;20657;-72
2021/09/04 01:18:03;;;;;;;8.98;6.15;;;;;;;;;;5049049;28;20051;-72
2021/09/04 01:20:48;;;;;;;11.38;6.57;;;;;;;;;;5047508;28;20071;-72
2021/09/04 01:23:33;;;;;;;10.00;6.57;;;;;;;;;;5039627;28;20046;-72
2021/09/04 01:26:17;;;;;;;10.32;6.53;;;;;;;;;;5047945;28;20040;-72
2021/09/04 01:29:02;;;;;;;10.15;6.63;;;;;;;;;;5027575;28;20183;-72
2021/09/04 01:31:46;;;;;;;9.38;6.15;;;;;;;;;;5046393;28;20040;-72
2021/09/04 01:34:31;;;;;;;11.07;5.85;;;;;;;;;;5058007;28;20070;-72
2021/09/04 01:37:15;;;;;;;10.32;6.20;;;;;;;;;;5047370;28;20570;-72
2021/09/04 01:40:00;;;;;;;11.73;6.65;;;;;;;;;;5046851;28;20436;-72
2021/09/04 01:42:45;;;;;;;12.82;6.75;;;;;;;;;;5034828;28;20072;-72
2021/09/04 01:45:29;;;;;;;9.90;6.53;;;;;;;;;;5051551;28;20040;-72
2021/09/04 01:48:14;;;;;;;9.85;6.22;;;;;;;;;;5055015;28;20405;-72
2021/09/04 01:50:59;;;;;;;10.27;6.47;;;;;;;;;;5033241;28;20107;-72
2021/09/04 01:53:44;;;;;;;9.40;6.45;;;;;;;;;;5060728;28;20112;-72
2021/09/04 01:56:28;;;;;;;10.88;6.60;;;;;;;;;;5032376;28;20047;-72
2021/09/04 01:59:13;;;;;;;9.55;6.32;;;;;;;;;;5047847;28;20047;-72
2021/09/04 02:01:57;;;;;;;9.80;6.22;;;;;;;;;;5047149;28;20063;-72
2021/09/04 02:04:42;;;;;;;10.15;6.00;;;;;;;;;;5045583;28;20107;-72
2021/09/04 02:07:26;;;;;;;8.93;5.90;;;;;;;;;;5046815;28;20398;-72
2021/09/04 02:10:11;;;;;;;11.60;7.75;;;;;;;;;;5049086;28;20437;-72
2021/09/04 02:12:56;;;;;;;11.13;6.47;;;;;;;;;;5046955;28;20065;-72
2021/09/04 02:15:40;;;;;;;10.75;6.53;;;;;;;;;;5047298;28;20505;-72
2021/09/04 02:18:25;;;;;;;12.90;7.03;;;;;;;;;;5034350;28;20048;-72
2021/09/04 02:21:10;;;;;;;11.05;6.50;;;;;;;;;;5045937;28;20116;-72
2021/09/04 02:23:55;;;;;;;10.07;6.72;;;;;;;;;;5050693;28;20548;-72
2021/09/04 02:26:39;;;;;;;12.20;7.18;;;;;;;;;;5049563;28;20043;-72
2021/09/04 02:29:24;;;;;;;10.52;6.50;;;;;;;;;;5030939;28;20215;-72
2021/09/04 02:32:08;;;;;;;11.07;6.85;;;;;;;;;;5037453;28;20048;-72
2021/09/04 02:34:53;;;;;;;11.80;7.07;;;;;;;;;;5050545;28;20532;-72
2021/09/04 02:37:37;;;;;;;11.10;6.90;;;;;;;;;;5048223;28;20067;-72
2021/09/04 02:40:22;;;;;;;10.80;6.68;;;;;;;;;;5031125;28;20084;-72
2021/09/04 02:43:07;;;;;;;9.98;6.32;;;;;;;;;;5061527;28;20048;-72
2021/09/04 02:45:51;;;;;;;9.68;6.72;;;;;;;;;;5052518;28;20048;-72
2021/09/04 02:48:36;;;;;;;10.38;6.93;;;;;;;;;;5028861;28;20113;-72
2021/09/04 02:51:20;;;;;;;11.45;6.60;;;;;;;;;;5047361;28;20047;-73
2021/09/04 02:54:05;;;;;;;11.55;7.05;;;;;;;;;;5038162;28;20095;-72
2021/09/04 02:56:49;;;;;;;12.32;7.60;;;;;;;;;;5042072;28;20043;-72
2021/09/04 02:59:34;;;;;;;11.75;6.35;;;;;;;;;;5055811;28;20043;-72
2021/09/04 03:02:18;;;;;;;10.80;6.60;;;;;;;;;;5052723;28;20102;-72
2021/09/04 03:05:03;;;;;;;10.80;6.88;;;;;;;;;;5044134;28;20076;-72
2021/09/04 03:07:48;;;;;;;12.30;6.97;;;;;;;;;;5049317;28;20044;-72
2021/09/04 03:10:32;;;;;;;11.73;6.95;;;;;;;;;;5048472;28;20453;-72
2021/09/04 03:13:16;;;;;;;13.63;7.63;;;;;;;;;;5051127;28;20067;-72
2021/09/04 03:16:01;;;;;;;11.25;6.43;;;;;;;;;;5046688;28;20041;-72
2021/09/04 03:18:46;;;;;;;12.00;6.82;;;;;;;;;;5031012;28;20102;-72
2021/09/04 03:21:30;;;;;;;14.63;7.65;;;;;;;;;;5050731;28;20044;-72
2021/09/04 03:24:15;;;;;;;11.60;7.00;;;;;;;;;;5051574;28;20052;-72
2021/09/04 03:26:59;;;;;;;12.55;7.38;;;;;;;;;;5055747;28;20036;-72
2021/09/04 03:29:44;;;;;;;11.95;7.13;;;;;;;;;;5040647;28;20048;-72
2021/09/04 03:32:28;;;;;;;13.55;7.55;;;;;;;;;;5051511;28;20076;-72
2021/09/04 03:35:13;;;;;;;12.15;7.07;;;;;;;;;;5049201;28;20163;-72
2021/09/04 03:37:57;;;;;;;12.63;7.20;;;;;;;;;;5045611;28;20056;-72
2021/09/04 03:40:42;;;;;;;12.00;6.80;;;;;;;;;;5047294;28;20130;-72
2021/09/04 03:43:27;;;;;;;12.95;7.78;;;;;;;;;;5067066;28;20511;-72
2021/09/04 03:46:11;;;;;;;13.52;7.68;;;;;;;;;;5047761;28;20075;-72
2021/09/04 03:49:00;;;;;;;10.95;6.82;;;;;;;;;;5047904;28;20141;-72
2021/09/04 03:51:44;;;;;;;13.68;7.85;;;;;;;;;;5047287;28;20659;-72
2021/09/04 03:54:28;;;;;;;12.05;7.20;;;;;;;;;;5047934;28;20044;-72
2021/09/04 03:57:13;;;;;;;11.95;7.47;;;;;;;;;;5050498;28;20417;-72
2021/09/04 03:59:57;;;;;;;12.82;7.20;;;;;;;;;;5057589;28;20151;-72
2021/09/04 04:02:42;;;;;;;15.77;8.45;;;;;;;;;;5032382;28;20359;-72
2021/09/04 04:05:26;;;;;;;15.20;7.85;;;;;;;;;;5040142;28;20052;-72
2021/09/04 04:08:11;;;;;;;13.40;7.22;;;;;;;;;;5066134;28;20063;-72
2021/09/04 04:11:04;;;;;;;15.30;8.40;;;;;;;;;;5037523;28;20047;-72
2021/09/04 04:13:48;;;;;;;12.60;7.60;;;;;;;;;;5040844;28;20048;-72
2021/09/04 04:16:33;;;;;;;12.13;7.10;;;;;;;;;;5053740;28;20528;-72
2021/09/04 04:19:17;;;;;;;12.60;7.43;;;;;;;;;;5042296;28;20052;-72
2021/09/04 04:22:02;;;;;;;13.13;7.70;;;;;;;;;;5050669;28;20040;-73
2021/09/04 04:24:47;;;;;;;12.43;7.85;;;;;;;;;;5049941;28;20158;-72
2021/09/04 04:27:31;;;;;;;11.25;7.63;;;;;;;;;;5057737;28;20501;-72
2021/09/04 04:30:16;;;;;;;13.25;7.80;;;;;;;;;;5044807;28;20792;-72
2021/09/04 04:33:00;;;;;;;11.48;7.60;;;;;;;;;;5058104;28;20052;-72
2021/09/04 04:35:45;;;;;;;12.88;6.93;;;;;;;;;;5048749;28;20041;-72
2021/09/04 04:38:29;;;;;;;14.65;7.78;;;;;;;;;;5055867;28;20064;-73
2021/09/04 04:41:14;;;;;;;13.57;7.57;;;;;;;;;;5055762;28;20039;-72
2021/09/04 04:43:58;;;;;;;13.02;8.52;;;;;;;;;;5051732;28;20078;-73
2021/09/04 04:46:43;;;;;;;15.10;7.90;;;;;;;;;;5029522;28;20672;-72
2021/09/04 04:49:27;;;;;;;15.13;8.32;;;;;;;;;;5051258;28;20503;-72
2021/09/04 04:52:12;;;;;;;14.30;8.02;;;;;;;;;;5047513;28;20036;-73
2021/09/04 04:54:56;;;;;;;12.35;7.63;;;;;;;;;;5049474;28;20082;-73
2021/09/04 04:57:41;;;;;;;15.32;8.02;;;;;;;;;;5050512;28;20048;-73
2021/09/04 05:00:25;;;;;;;12.82;7.38;;;;;;;;;;5047811;28;20086;-73
2021/09/04 05:03:10;;;;;;;12.45;7.45;;;;;;;;;;5049322;28;20452;-72
2021/09/04 05:05:54;;;;;;;14.93;8.13;;;;;;;;;;5049416;28;20048;-73
2021/09/04 05:08:39;;;;;;;12.77;7.50;;;;;;;;;;5052024;28;20035;-73
2021/09/04 05:11:24;;;;;;;13.60;8.40;;;;;;;;;;5030713;28;20125;-73
2021/09/04 05:14:08;;;;;;;12.80;8.05;;;;;;;;;;5064831;28;20075;-74
2021/09/04 05:16:53;;;;;;;14.25;8.35;;;;;;;;;;5047631;28;20514;-73
2021/09/04 05:19:37;;;;;;;15.18;8.00;;;;;;;;;;5048167;28;20106;-74
2021/09/04 05:22:22;;;;;;;14.55;8.27;;;;;;;;;;5055582;28;20436;-73
2021/09/04 05:25:07;;;;;;;14.07;8.02;;;;;;;;;;5059712;28;20097;-73
2021/09/04 05:27:52;;;;;;;15.23;7.80;;;;;;;;;;5033015;28;20066;-73
2021/09/04 05:30:36;;;;;;;16.48;8.93;;;;;;;;;;5062508;28;20127;-73
2021/09/04 05:33:21;;;;;;;14.95;8.45;;;;;;;;;;5046078;28;20059;-73
2021/09/04 05:36:07;;;;;;;14.75;8.35;;;;;;;;;;5046699;28;20075;-73
2021/09/04 05:38:52;;;;;;;13.48;8.10;;;;;;;;;;5040674;28;20072;-73
2021/09/04 05:41:37;;;;;;;12.60;7.82;;;;;;;;;;5047653;28;20075;-73
2021/09/04 05:44:21;;;;;;;13.30;7.45;;;;;;;;;;5051360;28;20579;-73
2021/09/04 05:47:06;;;;;;;13.32;7.75;;;;;;;;;;5050925;28;20040;-73
2021/09/04 05:49:50;;;;;;;13.68;7.78;;;;;;;;;;5020111;28;20123;-72
2021/09/04 05:52:35;;;;;;;14.00;7.75;;;;;;;;;;5041608;28;20064;-73
2021/09/04 05:55:19;;;;;;;15.80;7.90;;;;;;;;;;5045242;28;20075;-73
2021/09/04 05:58:04;;;;;;;14.45;8.05;;;;;;;;;;5054394;28;20052;-73
2021/09/04 06:00:48;;;;;;;16.35;8.73;;;;;;;;;;5033352;28;20082;-73
2021/09/04 06:03:33;;;;;;;14.18;8.00;;;;;;;;;;5046860;28;20044;-76
2021/09/04 06:06:18;;;;;;;13.98;7.90;;;;;;;;;;5048010;28;20098;-73
2021/09/04 06:09:03;;;;;;;14.07;8.05;;;;;;;;;;5046880;28;20505;-73
2021/09/04 06:11:47;;;;;;;14.05;8.63;;;;;;;;;;5047814;28;20059;-73
2021/09/04 06:14:31;;;;;;;16.92;8.85;;;;;;;;;;5018104;28;20087;-73
2021/09/04 06:17:16;;;;;;;16.65;8.27;;;;;;;;;;5048250;28;20056;-73
2021/09/04 06:20:01;;;;;;;16.08;8.68;;;;;;;;;;5038129;28;20047;-73
2021/09/04 06:22:46;;;;;;;16.70;8.77;;;;;;;;;;5032201;28;20672;-73
2021/09/04 06:25:33;;;;;;;14.25;8.20;;;;;;;;;;5058563;28;20044;-73
2021/09/04 06:28:17;;;;;;;15.80;8.70;;;;;;;;;;5035450;28;20079;-73
2021/09/04 06:31:02;;;;;;;14.98;8.70;;;;;;;;;;5047506;28;20105;-74
2021/09/04 06:33:46;;;;;;;13.85;7.93;;;;;;;;;;5043723;28;20095;-73
2021/09/04 06:36:31;;;;;;;15.30;8.07;;;;;;;;;;5044385;28;20044;-74
2021/09/04 06:39:16;;;;;;;13.52;7.97;;;;;;;;;;5053394;28;20051;-73
2021/09/04 06:42:00;;;;;;;14.23;8.65;;;;;;;;;;5046477;28;20551;-73
2021/09/04 06:44:45;;;;;;;15.65;8.20;;;;;;;;;;5031826;28;20074;-74
2021/09/04 06:47:29;;;;;;;15.65;8.07;;;;;;;;;;5050496;28;20063;-73
2021/09/04 06:50:14;;;;;;;15.27;7.72;;;;;;;;;;5047443;28;20385;-73
2021/09/04 06:52:58;;;;;;;13.32;7.75;;;;;;;;;;5052389;28;20129;-73
2021/09/04 06:55:43;;;;;;;13.07;7.53;;;;;;;;;;5044628;28;20144;-73
2021/09/04 06:58:27;;;;;;;13.50;7.40;;;;;;;;;;5027271;28;20055;-74
2021/09/04 07:01:12;;;;;;;13.68;7.85;;;;;;;;;;5045400;28;20040;-75
2021/09/04 07:03:56;;;;;;;17.90;8.50;;;;;;;;;;5046766;28;20063;-73
2021/09/04 07:06:42;;;;;;;17.38;9.18;;;;;;;;;;5027413;28;20036;-75
2021/09/04 07:09:27;;;;;;;16.92;9.05;;;;;;;;;;5037731;28;20044;-72
2021/09/04 07:12:12;;;;;;;17.60;9.02;;;;;;;;;;5047755;28;20080;-72
2021/09/04 07:14:56;;;;;;;18.77;9.05;;;;;;;;;;5048104;28;20120;-73
2021/09/04 07:17:41;;;;;;;17.85;10.23;;;;;;;;;;5046856;28;20094;-72
2021/09/04 07:20:26;;;;;;;15.98;8.30;;;;;;;;;;5046837;28;20045;-73
2021/09/04 07:23:10;;;;;;;19.85;10.05;;;;;;;;;;5047641;28;20075;-73
2021/09/04 07:25:55;;;;;;;16.52;8.50;;;;;;;;;;5046230;28;20044;-73
2021/09/04 07:28:39;;;;;;;15.45;8.60;;;;;;;;;;5047884;28;20105;-74
2021/09/04 07:31:24;;;;;;;16.80;8.90;;;;;;;;;;5047682;28;20040;-72
2021/09/04 07:34:08;;;;;;;16.20;8.82;;;;;;;;;;5047427;28;20043;-73
2021/09/04 07:36:53;;;;;;;16.73;8.70;;;;;;;;;;5046891;28;20186;-73
2021/09/04 07:39:37;;;;;;;18.83;9.57;;;;;;;;;;5046248;28;20566;-72
2021/09/04 07:42:22;;;;;;;19.05;8.70;;;;;;;;;;5030875;28;20036;-72
2021/09/04 07:45:07;;;;;;;18.10;9.20;;;;;;;;;;5045267;28;20079;-72
2021/09/04 07:47:52;;;;;;;19.48;9.48;;;;;;;;;;5044569;28;20497;-72
2021/09/04 07:50:36;;;;;;;15.02;8.50;;;;;;;;;;5045397;28;20059;-72
2021/09/04 07:53:21;;;;;;;17.65;9.35;;;;;;;;;;5045493;28;20048;-72
2021/09/04 07:56:06;;;;;;;17.52;8.43;;;;;;;;;;5031551;28;20551;-73
2021/09/04 07:58:50;;;;;;;14.77;9.10;;;;;;;;;;5031187;28;20128;-72
2021/09/04 08:01:34;;;;;;;14.55;8.40;;;;;;;;;;5025317;28;20052;-72
2021/09/04 08:04:19;;;;;;;15.65;8.65;;;;;;;;;;5043932;28;20044;-72
2021/09/04 08:07:04;;;;;;;16.45;8.48;;;;;;;;;;5031398;28;20063;-71
2021/09/04 08:09:49;;;;;;;16.52;8.73;;;;;;;;;;5045044;28;20062;-72
2021/09/04 08:12:33;;;;;;;16.17;8.63;;;;;;;;;;5031192;28;20103;-73
2021/09/04 08:15:18;;;;;;;14.90;9.15;;;;;;;;;;5046365;28;20040;-72
2021/09/04 08:18:02;;;;;;;16.77;9.45;;;;;;;;;;5029335;28;20125;-72
2021/09/04 08:20:47;;;;;;;12.98;7.55;;;;;;;;;;5026478;28;20043;-72
2021/09/04 08:23:32;;;;;;;14.23;8.30;;;;;;;;;;5025027;28;20095;-72
2021/09/04 08:26:16;;;;;;;16.80;8.77;;;;;;;;;;5025318;28;20072;-72
2021/09/04 08:29:01;;;;;;;13.55;8.48;;;;;;;;;;5021621;28;20040;-72
2021/09/04 08:31:45;;;;;;;14.00;8.00;;;;;;;;;;5030877;28;20040;-72
2021/09/04 08:34:30;;;;;;;16.13;8.43;;;;;;;;;;5045084;28;20068;-73
2021/09/04 08:37:15;;;;;;;14.93;8.52;;;;;;;;;;5044438;28;20047;-72
2021/09/04 08:39:59;;;;;;;15.40;8.43;;;;;;;;;;5026199;28;20091;-72
2021/09/04 08:42:44;;;;;;;13.80;8.13;;;;;;;;;;5028008;28;20040;-72
2021/09/04 08:45:28;;;;;;;12.30;8.43;;;;;;;;;;5040203;28;20090;-72
2021/09/04 08:48:13;;;;;;;11.65;7.35;;;;;;;;;;5039509;28;20067;-72
2021/09/04 08:50:58;;;;;;;11.23;6.70;;;;;;;;;;5044765;28;20047;-72
2021/09/04 08:53:42;;;;;;;15.23;8.18;;;;;;;;;;5043637;28;20684;-72
2021/09/04 08:56:27;;;;;;;12.23;7.90;;;;;;;;;;5042214;28;20493;-72
2021/09/04 08:59:12;;;;;;;12.88;7.75;;;;;;;;;;5030587;28;20083;-73
2021/09/04 09:01:57;;;;;;;13.23;7.63;;;;;;;;;;5049496;28;20571;-74
2021/09/04 09:04:42;;;;;;;14.00;8.75;;;;;;;;;;5028006;28;20776;-72
2021/09/04 09:07:45;;;;;;;14.20;8.15;;;;;;;;;;5030694;28;20075;-73
2021/09/04 09:10:31;;;;;;;14.25;8.10;;;;;;;;;;5042161;28;20040;-72
2021/09/04 09:13:17;;;;;;;13.25;7.70;;;;;;;;;;5034866;28;20180;-74
2021/09/04 09:16:02;;;;;;;13.32;7.47;;;;;;;;;;5044525;28;20047;-72
2021/09/04 09:19:00;;;;;;;12.80;7.65;;;;;;;;;;5032185;28;20130;-72
2021/09/04 09:21:44;;;;;;;13.07;7.63;;;;;;;;;;5014191;28;20722;-72
2021/09/04 09:24:29;;;;;;;13.70;7.88;;;;;;;;;;5032702;28;20043;-72
2021/09/04 09:27:14;;;;;;;14.25;8.15;;;;;;;;;;5047165;28;20044;-72
2021/09/04 09:29:59;;;;;;;11.43;7.25;;;;;;;;;;5040246;28;21220;-72
2021/09/04 09:32:53;;;;;;;11.18;7.35;;;;;;;;;;5030723;28;20194;-74
2021/09/04 09:35:43;;;;;;;11.57;7.45;;;;;;;;;;5047718;28;20087;-72
2021/09/04 09:38:28;;;;;;;12.60;7.78;;;;;;;;;;5047057;28;20571;-72
2021/09/04 09:41:13;;;;;;;13.38;7.93;;;;;;;;;;5044682;28;20039;-72
2021/09/04 09:43:57;;;;;;;10.73;6.95;;;;;;;;;;5047613;28;20051;-72
2021/09/04 09:46:49;;;;;;;11.95;7.95;;;;;;;;;;5047935;28;20082;-72
2021/09/04 09:49:34;;;;;;;;;;;;;;;;;;5030253;28;20120;-72
2021/09/04 09:52:19;;;;;;;8.73;5.85;;;;;;;;;;5045785;28;19920;-72
2021/09/04 09:55:03;;;;;;;9.70;6.32;;;;;;;;;;5048392;28;20118;-72
2021/09/04 09:57:48;;;;;;;9.65;6.63;;;;;;;;;;5030766;28;20083;-73
2021/09/04 10:00:32;;;;;;;10.30;7.00;;;;;;;;;;5036907;28;20044;-73
2021/09/04 10:03:17;;;;;;;7.70;5.25;;;;;;;;;;5047175;28;20040;-72
2021/09/04 10:06:01;;;;;;;10.02;6.60;;;;;;;;;;5047575;28;20477;-72
2021/09/04 10:08:46;;;;;;;10.23;7.13;;;;;;;;;;5032969;28;20040;-72
2021/09/04 10:11:30;;;;;;;9.88;6.95;;;;;;;;;;5041268;28;20466;-72
2021/09/04 10:14:14;;;;;;;8.23;6.03;;;;;;;;;;5045494;28;20640;-72
2021/09/04 10:17:00;;;;;;;8.63;6.10;;;;;;;;;;5047010;28;20098;-72
2021/09/04 10:19:44;;;;;;;8.80;6.47;;;;;;;;;;5043994;28;20056;-74
2021/09/04 10:22:29;;;;;;;10.57;6.88;;;;;;;;;;5043971;28;20493;-72
2021/09/04 10:25:19;;;;;;;8.82;6.55;;;;;;;;;;5032864;28;20059;-72
2021/09/04 10:28:04;;;;;;;9.52;6.22;;;;;;;;;;5026472;28;20043;-71
2021/09/04 10:30:52;;;;;;;11.05;7.28;;;;;;;;;;5015141;28;20107;-72
2021/09/04 10:33:39;;;;;;;8.68;6.22;;;;;;;;;;5018991;28;20422;-72
2021/09/04 10:36:24;;;;;;;10.00;7.07;;;;;;;;;;5030957;28;20036;-74
2021/09/04 10:39:09;;;;;;;7.90;5.95;;;;;;;;;;5028203;28;20048;-72
2021/09/04 10:41:54;;;;;;;8.27;5.93;;;;;;;;;;5046771;28;20039;-73
2021/09/04 10:44:41;;;;;;;9.25;6.50;;;;;;;;;;5046965;28;20043;-72
2021/09/04 10:47:26;;;;;;;8.05;6.00;;;;;;;;;;5030498;28;20163;-72
2021/09/04 10:50:25;;;;;;;8.60;6.47;;;;;;;;;;5032434;28;20044;-73
2021/09/04 10:53:10;;;;;;;7.90;6.05;;;;;;;;;;5046360;28;20551;-73
2021/09/04 10:55:55;;;;;;;7.78;6.20;;;;;;;;;;5046367;28;20754;-73
2021/09/04 10:58:43;;;;;;;8.82;6.07;;;;;;;;;;5042122;28;20122;-73
2021/09/04 11:01:28;;;;;;;8.85;6.45;;;;;;;;;;5040354;28;20116;-73
2021/09/04 11:04:12;;;;;;;8.63;6.22;;;;;;;;;;5045203;28;20755;-73
2021/09/04 11:06:57;;;;;;;8.75;6.43;;;;;;;;;;5031855;28;20076;-74
2021/09/04 11:09:51;;;;;;;8.52;6.28;;;;;;;;;;5025520;28;20037;-73
2021/09/04 11:12:35;;;;;;;8.48;6.55;;;;;;;;;;5030966;28;20040;-73
2021/09/04 11:15:26;;;;;;;9.32;6.20;;;;;;;;;;5045792;28;20032;-73
2021/09/04 11:18:14;;;;;;;9.30;6.82;;;;;;;;;;5043651;28;20552;-73
2021/09/04 11:20:59;;;;;;;8.20;6.05;;;;;;;;;;5041161;28;20501;-73
2021/09/04 11:23:47;;;;;;;8.57;6.38;;;;;;;;;;5044952;28;20203;-73
2021/09/04 11:26:31;;;;;;;9.13;6.45;;;;;;;;;;5045843;28;20102;-73
2021/09/04 11:29:16;;;;;;;10.20;6.18;;;;;;;;;;5044971;28;20517;-73
2021/09/04 11:32:00;;;;;;;8.63;6.13;;;;;;;;;;5044535;28;20071;-73
2021/09/04 11:34:46;;;;;;;8.07;5.93;;;;;;;;;;5045482;28;20039;-73
2021/09/04 11:37:31;;;;;;;9.77;6.50;;;;;;;;;;5043119;28;20551;-73
2021/09/04 11:40:16;;;;;;;10.30;6.43;;;;;;;;;;5046688;28;20421;-73
2021/09/04 11:43:01;;;;;;;9.25;6.28;;;;;;;;;;5041627;28;20072;-73
2021/09/04 11:45:45;;;;;;;8.40;6.03;;;;;;;;;;5031360;28;20047;-73
2021/09/04 11:48:30;;;;;;;8.30;6.07;;;;;;;;;;5042468;28;20257;-73
2021/09/04 11:51:15;;;;;;;7.65;5.88;;;;;;;;;;5045532;28;20044;-70
2021/09/04 11:54:00;;;;;;;9.30;6.78;;;;;;;;;;5029261;28;20079;-73
2021/09/04 11:56:45;;;;;;;7.75;6.45;;;;;;;;;;5044105;28;20112;-73
2021/09/04 11:59:29;;;;;;;8.88;6.72;;;;;;;;;;5038814;28;20056;-72
2021/09/04 12:02:14;;;;;;;8.68;6.10;;;;;;;;;;5042274;28;20082;-72
2021/09/04 12:05:02;;;;;;;9.27;6.90;;;;;;;;;;5044405;28;20083;-72
2021/09/04 12:07:47;;;;;;;8.20;6.40;;;;;;;;;;5030508;28;20044;-73
2021/09/04 12:10:33;;;;;;;8.00;5.90;;;;;;;;;;5023762;28;20454;-72
2021/09/04 12:13:19;;;;;;;9.50;6.85;;;;;;;;;;5045142;28;20055;-72
2021/09/04 12:16:04;;;;;;;8.60;6.35;;;;;;;;;;5029512;28;20492;-73
2021/09/04 12:18:49;;;;;;;10.15;6.68;;;;;;;;;;5046175;28;20139;-72
2021/09/04 12:21:36;;;;;;;8.75;6.80;;;;;;;;;;5046388;28;20402;-72
2021/09/04 12:24:31;;;;;;;8.52;6.32;;;;;;;;;;5044794;28;20520;-73
2021/09/04 12:27:16;;;;;;;8.95;6.97;;;;;;;;;;5027604;28;20158;-72
2021/09/04 12:30:01;;;;;;;8.30;6.35;;;;;;;;;;5031133;28;20044;-72
2021/09/04 12:32:46;;;;;;;9.68;6.25;;;;;;;;;;5043743;28;20071;-72
2021/09/04 12:35:53;;;;;;;9.98;6.88;;;;;;;;;;5047481;28;20491;-72
2021/09/04 12:38:41;;;;;;;8.82;6.43;;;;;;;;;;5049124;28;20055;-72
2021/09/04 12:41:30;;;;;;;9.27;6.88;;;;;;;;;;5048801;28;20102;-72
2021/09/04 12:44:16;;;;;;;9.73;6.05;;;;;;;;;;5048171;28;20044;-72
2021/09/04 12:47:02;;;;;;;7.45;6.20;;;;;;;;;;5026577;28;20067;-72
2021/09/04 12:49:50;;;;;;;9.88;7.13;;;;;;;;;;5029051;28;20055;-72
2021/09/04 12:52:35;;;;;;;10.60;6.55;;;;;;;;;;5032784;28;20035;-73
2021/09/04 12:55:20;;;;;;;10.35;6.60;;;;;;;;;;5031920;28;20171;-74
2021/09/04 12:58:05;;;;;;;8.73;6.25;;;;;;;;;;5048711;28;20733;-72
2021/09/04 13:00:49;;;;;;;8.57;6.43;;;;;;;;;;5049808;28;20036;-72
2021/09/04 13:03:34;;;;;;;9.73;7.13;;;;;;;;;;5030975;28;20048;-73
2021/09/04 13:06:19;;;;;;;9.43;6.78;;;;;;;;;;5047757;28;20035;-72
2021/09/04 13:09:04;;;;;;;8.50;5.97;;;;;;;;;;5038270;28;20064;-72
2021/09/04 13:11:48;;;;;;;10.88;7.28;;;;;;;;;;5038611;28;20523;-72
2021/09/04 13:14:33;;;;;;;9.52;6.80;;;;;;;;;;5046837;28;20502;-73
2021/09/04 13:17:17;;;;;;;9.38;6.40;;;;;;;;;;5033334;28;20068;-73
2021/09/04 13:20:02;;;;;;;11.70;6.50;;;;;;;;;;5045718;28;20102;-73
2021/09/04 13:22:46;;;;;;;9.40;6.50;;;;;;;;;;5046944;28;20080;-72
2021/09/04 13:25:31;;;;;;;10.10;6.80;;;;;;;;;;5034532;28;20048;-72
2021/09/04 13:28:15;;;;;;;9.68;6.75;;;;;;;;;;5047102;28;20052;-73
2021/09/04 13:31:01;;;;;;;9.38;6.57;;;;;;;;;;5048016;28;20110;-72
2021/09/04 13:33:46;;;;;;;8.57;6.55;;;;;;;;;;5027250;28;20126;-73
2021/09/04 13:36:32;;;;;;;9.98;6.53;;;;;;;;;;5029287;28;20501;-75
2021/09/04 13:39:16;;;;;;;9.55;6.80;;;;;;;;;;5044059;28;20194;-73
2021/09/04 13:42:01;;;;;;;8.60;6.25;;;;;;;;;;5033696;28;20055;-73
2021/09/04 13:44:45;;;;;;;8.77;6.15;;;;;;;;;;5042990;28;20075;-73
2021/09/04 13:47:30;;;;;;;9.25;6.03;;;;;;;;;;5040642;28;20110;-73
2021/09/04 13:50:14;;;;;;;9.90;6.50;;;;;;;;;;5046679;28;20517;-73
2021/09/04 13:52:58;;;;;;;9.07;6.55;;;;;;;;;;5031242;28;20043;-73
2021/09/04 13:55:43;;;;;;;10.27;6.95;;;;;;;;;;5043979;28;20552;-73
2021/09/04 13:58:27;;;;;;;9.20;6.35;;;;;;;;;;5045361;28;20857;-73
2021/09/04 14:01:12;;;;;;;9.25;6.70;;;;;;;;;;5036883;28;20593;-73
2021/09/04 14:03:56;;;;;;;8.27;6.63;;;;;;;;;;5045696;28;20140;-73
2021/09/04 14:06:41;;;;;;;10.00;6.55;;;;;;;;;;5048457;28;20507;-72
2021/09/04 14:09:26;;;;;;;9.05;6.53;;;;;;;;;;5029639;28;20472;-73
2021/09/04 14:12:10;;;;;;;10.25;6.40;;;;;;;;;;5045762;28;20121;-73
2021/09/04 14:14:55;;;;;;;9.02;6.43;;;;;;;;;;5042887;28;20060;-73
2021/09/04 14:17:40;;;;;;;10.20;6.90;;;;;;;;;;5045243;28;20043;-72
2021/09/04 14:20:26;;;;;;;10.20;6.55;;;;;;;;;;5047140;28;20217;-72
2021/09/04 14:23:11;;;;;;;9.48;6.65;;;;;;;;;;5030223;28;20406;-72
2021/09/04 14:25:55;;;;;;;9.90;6.72;;;;;;;;;;5043404;28;20075;-73
2021/09/04 14:28:40;;;;;;;11.25;6.82;;;;;;;;;;5020126;28;20087;-73
2021/09/04 14:31:24;;;;;;;10.90;6.88;;;;;;;;;;5025903;28;20040;-73
2021/09/04 14:34:09;;;;;;;9.93;6.97;;;;;;;;;;5028130;28;20072;-73
2021/09/04 14:36:53;;;;;;;9.07;7.10;;;;;;;;;;5044678;28;20044;-73
2021/09/04 14:39:38;;;;;;;10.20;7.47;;;;;;;;;;5031632;28;20059;-72
2021/09/04 14:42:23;;;;;;;10.38;7.28;;;;;;;;;;5045194;28;20429;-73
2021/09/04 14:45:08;;;;;;;11.43;7.63;;;;;;;;;;5046187;28;20063;-73
2021/09/04 14:47:52;;;;;;;10.82;7.18;;;;;;;;;;5029810;28;20123;-73
2021/09/04 14:50:37;;;;;;;9.80;6.97;;;;;;;;;;5027705;28;20047;-75
2021/09/04 14:53:22;;;;;;;10.02;6.78;;;;;;;;;;5035442;28;20051;-73
2021/09/04 14:56:07;;;;;;;10.25;7.35;;;;;;;;;;5031581;28;20071;-73
2021/09/04 14:58:51;;;;;;;13.60;7.50;;;;;;;;;;5040131;28;20044;-73
2021/09/04 15:01:36;;;;;;;10.70;7.50;;;;;;;;;;5024669;28;20036;-75
2021/09/04 15:04:20;;;;;;;10.95;7.13;;;;;;;;;;5039588;28;20040;-73
2021/09/04 15:07:06;;;;;;;12.48;7.78;;;;;;;;;;5031853;28;20035;-73
2021/09/04 15:09:50;;;;;;;14.05;7.60;;;;;;;;;;5045810;28;20044;-73
2021/09/04 15:12:35;;;;;;;9.55;7.10;;;;;;;;;;5046191;28;20094;-73
2021/09/04 15:15:19;;;;;;;10.02;6.90;;;;;;;;;;5045077;28;20449;-73
2021/09/04 15:18:04;;;;;;;8.95;6.97;;;;;;;;;;5045383;28;20047;-73
2021/09/04 15:20:49;;;;;;;12.65;7.88;;;;;;;;;;5045595;28;20059;-74
2021/09/04 15:23:39;;;;;;;11.55;7.70;;;;;;;;;;5045136;28;20044;-73
2021/09/04 15:26:24;;;;;;;12.40;8.10;;;;;;;;;;5032041;28;20090;-73
2021/09/04 15:29:08;;;;;;;12.20;7.57;;;;;;;;;;5045678;28;20083;-73
2021/09/04 15:31:53;;;;;;;11.27;7.38;;;;;;;;;;5046641;28;20623;-73
2021/09/04 15:34:38;;;;;;;11.23;7.22;;;;;;;;;;5027332;28;20083;-73
2021/09/04 15:37:22;;;;;;;11.50;7.38;;;;;;;;;;5030207;28;20074;-72
2021/09/04 15:40:07;;;;;;;11.88;7.75;;;;;;;;;;5029007;28;20056;-73
2021/09/04 15:42:51;;;;;;;11.73;7.50;;;;;;;;;;5025942;28;20095;-73
2021/09/04 15:45:36;;;;;;;10.63;7.00;;;;;;;;;;5025407;28;20511;-74
2021/09/04 15:48:21;;;;;;;11.30;7.47;;;;;;;;;;5021202;28;20051;-73
2021/09/04 15:51:05;;;;;;;10.95;7.68;;;;;;;;;;5046407;28;20051;-73
2021/09/04 15:53:50;;;;;;;11.10;7.97;;;;;;;;;;5044751;28;20051;-74
2021/09/04 15:56:34;;;;;;;11.27;7.80;;;;;;;;;;5031658;28;20398;-73
2021/09/04 15:59:19;;;;;;;13.45;7.60;;;;;;;;;;5041635;28;20139;-73
2021/09/04 16:02:03;;;;;;;9.07;7.22;;;;;;;;;;5027786;28;20445;-73
2021/09/04 16:04:48;;;;;;;9.68;7.32;;;;;;;;;;5034724;28;20095;-72
2021/09/04 16:07:32;;;;;;;10.43;7.30;;;;;;;;;;5039479;28;20504;-74
2021/09/04 16:10:17;;;;;;;11.82;7.65;;;;;;;;;;5021420;28;20971;-74
2021/09/04 16:13:01;;;;;;;11.68;7.78;;;;;;;;;;5027142;28;20687;-75
2021/09/04 16:15:46;;;;;;;12.82;7.30;;;;;;;;;;5044977;28;20040;-75
2021/09/04 16:18:31;;;;;;;11.68;7.25;;;;;;;;;;5048216;28;20086;-75